Time;durP1;ratioP1;P1;durP2;ratioP2;P2;SDS_P1;SDS_P2;PMS_P1;PMS_P2;Temp;Humidity;BMP_temperature;BMP_pressure;BME280_temperature;BME280_humidity;BME280_pressure;Samples;Min_cycle;Max_cycle;Signal;HPM_P1;HPM_P2
2021/10/19 00:01:05;;;;;;;23.33;16.90;;;12.40;99.90;;;;;;5094517;28;20036;-69
2021/10/19 00:03:31;;;;;;;25.00;17.25;;;12.40;99.90;;;;;;5094307;28;20047;-69
2021/10/19 00:05:56;;;;;;;28.83;18.42;;;12.40;99.90;;;;;;5095664;28;20040;-69
2021/10/19 00:08:22;;;;;;;24.60;16.60;;;12.40;99.90;;;;;;5095679;28;20036;-69
2021/10/19 00:10:47;;;;;;;24.50;17.33;;;12.40;99.90;;;;;;5095496;28;20043;-69
2021/10/19 00:13:13;;;;;;;21.73;16.08;;;12.40;99.90;;;;;;5095407;28;20141;-69
2021/10/19 00:15:39;;;;;;;26.90;17.67;;;12.40;99.90;;;;;;5095878;28;20044;-69
2021/10/19 00:18:04;;;;;;;26.70;16.90;;;12.40;99.90;;;;;;5095759;28;20036;-69
2021/10/19 00:20:30;;;;;;;24.67;17.73;;;12.40;99.90;;;;;;5094248;28;20036;-69
2021/10/19 00:22:56;;;;;;;25.15;17.45;;;12.40;99.90;;;;;;5094986;28;20119;-69
2021/10/19 00:25:21;;;;;;;22.05;16.52;;;12.40;99.90;;;;;;5095248;28;20527;-69
2021/10/19 00:27:47;;;;;;;24.45;17.48;;;12.40;99.90;;;;;;5094221;28;20115;-69
2021/10/19 00:30:14;;;;;;;22.48;16.88;;;12.40;99.90;;;;;;5094928;28;20028;-69
2021/10/19 00:32:41;;;;;;;24.83;17.48;;;12.40;99.90;;;;;;5093892;28;20157;-69
2021/10/19 00:35:07;;;;;;;27.35;17.35;;;12.40;99.90;;;;;;5095693;28;20087;-69
2021/10/19 00:37:33;;;;;;;27.77;17.77;;;12.40;99.90;;;;;;5095621;28;20120;-69
2021/10/19 00:39:59;;;;;;;25.92;18.10;;;12.40;99.90;;;;;;5094629;28;20115;-69
2021/10/19 00:42:24;;;;;;;26.23;17.02;;;12.40;99.90;;;;;;5093553;28;20044;-69
2021/10/19 00:44:50;;;;;;;29.75;18.10;;;12.40;99.90;;;;;;5094965;28;20047;-69
2021/10/19 00:47:20;;;;;;;26.85;17.15;;;12.40;99.90;;;;;;5093617;28;20116;-69
2021/10/19 00:49:49;;;;;;;26.77;18.45;;;12.40;99.90;;;;;;5094361;28;20075;-69
2021/10/19 00:52:16;;;;;;;24.63;16.95;;;12.30;99.90;;;;;;5095380;28;20044;-69
2021/10/19 00:54:43;;;;;;;22.60;17.40;;;12.30;99.90;;;;;;5094760;28;20046;-69
2021/10/19 00:57:10;;;;;;;22.90;17.55;;;12.30;99.90;;;;;;5093762;28;20075;-69
2021/10/19 00:59:41;;;;;;;28.25;18.65;;;12.30;99.90;;;;;;5094333;28;20032;-69
2021/10/19 01:02:07;;;;;;;27.80;17.20;;;12.30;99.90;;;;;;5093955;28;20126;-69
2021/10/19 01:04:33;;;;;;;24.98;17.23;;;12.30;99.90;;;;;;5094490;28;20128;-69
2021/10/19 01:06:58;;;;;;;26.77;17.55;;;12.30;99.90;;;;;;5094394;28;20047;-69
2021/10/19 01:09:24;;;;;;;25.55;17.58;;;12.30;99.90;;;;;;5092776;28;20044;-69
2021/10/19 01:11:50;;;;;;;26.60;18.45;;;12.40;99.90;;;;;;5094511;28;20369;-69
2021/10/19 01:14:15;;;;;;;24.35;17.98;;;12.30;99.90;;;;;;5094367;28;20064;-69
2021/10/19 01:16:41;;;;;;;27.45;17.70;;;12.40;99.90;;;;;;5094105;28;20058;-69
2021/10/19 01:19:06;;;;;;;29.83;17.33;;;12.40;99.90;;;;;;5092818;28;20496;-69
2021/10/19 01:21:32;;;;;;;29.98;17.75;;;12.40;99.90;;;;;;5094346;28;20524;-69
2021/10/19 01:23:58;;;;;;;26.30;17.60;;;12.40;99.90;;;;;;5092823;28;20040;-69
2021/10/19 01:26:24;;;;;;;25.10;17.35;;;12.40;99.90;;;;;;5094135;28;20075;-69
2021/10/19 01:28:49;;;;;;;25.55;17.02;;;12.40;99.90;;;;;;5093957;28;20044;-69
2021/10/19 01:31:15;;;;;;;24.88;17.02;;;12.40;99.90;;;;;;5094106;28;20085;-69
2021/10/19 01:33:41;;;;;;;24.60;16.75;;;12.40;99.90;;;;;;5094069;28;20032;-69
2021/10/19 01:36:08;;;;;;;23.92;17.90;;;12.50;99.90;;;;;;5092773;28;20040;-69
2021/10/19 01:38:35;;;;;;;27.08;19.13;;;12.50;99.90;;;;;;5092301;28;20048;-69
2021/10/19 01:41:02;;;;;;;26.75;17.05;;;12.50;99.90;;;;;;5092571;28;20040;-69
2021/10/19 01:43:29;;;;;;;27.73;18.65;;;12.50;99.90;;;;;;5093762;28;20593;-69
2021/10/19 01:45:57;;;;;;;28.17;19.20;;;12.50;99.90;;;;;;5092426;28;20040;-69
2021/10/19 01:48:24;;;;;;;24.15;17.38;;;12.50;99.90;;;;;;5092427;28;20051;-69
2021/10/19 01:50:50;;;;;;;22.40;16.83;;;12.50;99.90;;;;;;5093682;28;20051;-69
2021/10/19 01:53:16;;;;;;;27.13;18.65;;;12.50;99.90;;;;;;5093568;28;20044;-69
2021/10/19 01:55:42;;;;;;;27.92;18.10;;;12.50;99.90;;;;;;5093750;28;20514;-69
2021/10/19 01:58:09;;;;;;;25.02;17.65;;;12.50;99.90;;;;;;5093828;28;20036;-69
2021/10/19 02:00:36;;;;;;;30.52;19.58;;;12.50;99.90;;;;;;5093219;28;20454;-69
2021/10/19 02:03:06;;;;;;;25.38;18.02;;;12.50;99.90;;;;;;5093611;28;20082;-69
2021/10/19 02:05:32;;;;;;;24.45;17.23;;;12.60;99.90;;;;;;5093483;28;20036;-69
2021/10/19 02:07:58;;;;;;;22.23;15.82;;;12.60;99.90;;;;;;5093656;28;20071;-69
2021/10/19 02:10:24;;;;;;;24.88;18.10;;;12.60;99.90;;;;;;5091874;28;20097;-69
2021/10/19 02:12:49;;;;;;;25.13;17.00;;;12.60;99.90;;;;;;5093223;28;20426;-69
2021/10/19 02:15:15;;;;;;;25.40;18.25;;;12.60;99.90;;;;;;5092327;28;20089;-69
2021/10/19 02:17:40;;;;;;;27.60;18.92;;;12.60;99.90;;;;;;5093470;28;20039;-69
2021/10/19 02:20:07;;;;;;;26.33;17.20;;;12.60;99.90;;;;;;5093262;28;20540;-69
2021/10/19 02:22:33;;;;;;;25.33;17.33;;;12.60;99.90;;;;;;5092282;28;20051;-69
2021/10/19 02:24:59;;;;;;;23.77;18.20;;;12.60;99.90;;;;;;5092758;28;20434;-69
2021/10/19 02:27:26;;;;;;;25.17;17.00;;;12.60;99.90;;;;;;5093279;28;20040;-69
2021/10/19 02:29:51;;;;;;;24.40;18.00;;;12.60;99.90;;;;;;5093097;28;20089;-69
2021/10/19 02:32:17;;;;;;;28.08;16.83;;;12.70;99.90;;;;;;5093295;28;20044;-69
2021/10/19 02:34:43;;;;;;;25.58;17.25;;;12.70;99.90;;;;;;5093394;28;20044;-69
2021/10/19 02:37:08;;;;;;;24.52;18.20;;;12.70;99.90;;;;;;5093240;28;20052;-69
2021/10/19 02:39:34;;;;;;;26.20;17.10;;;12.70;99.90;;;;;;5091673;28;20044;-69
2021/10/19 02:42:00;;;;;;;24.65;16.85;;;12.70;99.90;;;;;;5093091;28;20044;-69
2021/10/19 02:44:25;;;;;;;22.08;15.48;;;12.70;99.90;;;;;;5093271;28;20392;-69
2021/10/19 02:46:51;;;;;;;25.70;17.60;;;12.70;99.90;;;;;;5093947;28;20115;-69
2021/10/19 02:49:17;;;;;;;24.13;16.73;;;12.70;99.90;;;;;;5091798;28;20054;-69
2021/10/19 02:51:42;;;;;;;23.45;16.65;;;12.70;99.90;;;;;;5093091;28;20036;-69
2021/10/19 02:54:10;;;;;;;23.02;16.50;;;12.70;99.90;;;;;;5093090;28;20037;-69
2021/10/19 02:56:37;;;;;;;22.65;17.00;;;12.70;99.90;;;;;;5091653;28;20050;-69
2021/10/19 02:59:03;;;;;;;25.52;17.73;;;12.70;99.90;;;;;;5092791;28;20036;-69
2021/10/19 03:01:28;;;;;;;22.42;16.90;;;12.70;99.90;;;;;;5093179;28;20078;-69
2021/10/19 03:03:54;;;;;;;26.38;17.83;;;12.70;99.90;;;;;;5093066;28;20036;-69
2021/10/19 03:06:19;;;;;;;24.33;16.45;;;12.60;99.90;;;;;;5092902;28;20035;-69
2021/10/19 03:08:45;;;;;;;23.63;17.90;;;12.70;99.90;;;;;;5091267;28;20067;-69
2021/10/19 03:11:11;;;;;;;27.10;18.42;;;12.70;99.90;;;;;;5093154;28;20036;-69
2021/10/19 03:13:36;;;;;;;25.08;17.33;;;12.70;99.90;;;;;;5093308;28;20043;-69
2021/10/19 03:16:02;;;;;;;23.52;17.48;;;12.70;99.90;;;;;;5092767;28;20051;-69
2021/10/19 03:18:28;;;;;;;25.05;17.35;;;12.70;99.90;;;;;;5092837;28;20047;-69
2021/10/19 03:20:54;;;;;;;21.63;15.77;;;12.60;99.90;;;;;;5093006;28;20063;-69
2021/10/19 03:23:19;;;;;;;22.33;16.35;;;12.70;99.90;;;;;;5092983;28;20122;-69
2021/10/19 03:25:45;;;;;;;24.15;17.40;;;12.70;99.90;;;;;;5094527;28;20150;-69
2021/10/19 03:28:11;;;;;;;21.60;15.82;;;12.70;99.90;;;;;;5097053;28;20064;-69
2021/10/19 03:30:36;;;;;;;23.70;16.58;;;12.70;99.90;;;;;;5078087;28;20456;-69
2021/10/19 03:33:02;;;;;;;24.20;16.33;;;12.70;99.90;;;;;;5096319;28;20044;-69
2021/10/19 03:35:28;;;;;;;21.23;15.90;;;12.70;99.90;;;;;;5095514;28;20061;-69
2021/10/19 03:37:55;;;;;;;24.95;17.38;;;12.70;99.90;;;;;;5095011;28;20036;-69
2021/10/19 03:40:21;;;;;;;22.20;15.40;;;12.70;99.90;;;;;;5096335;28;20493;-69
2021/10/19 03:42:48;;;;;;;20.83;16.70;;;12.70;99.90;;;;;;5096160;28;20430;-69
2021/10/19 03:45:15;;;;;;;21.77;15.90;;;12.70;99.90;;;;;;5096453;28;20392;-69
2021/10/19 03:47:41;;;;;;;25.67;18.30;;;12.70;99.90;;;;;;5096446;28;20068;-69
2021/10/19 03:50:07;;;;;;;25.67;18.10;;;12.70;99.90;;;;;;5096253;28;20118;-69
2021/10/19 03:52:33;;;;;;;25.80;17.52;;;12.70;99.90;;;;;;5096246;28;20040;-69
2021/10/19 03:54:59;;;;;;;22.73;16.75;;;12.70;99.90;;;;;;5095872;28;20032;-69
2021/10/19 03:57:24;;;;;;;25.00;17.10;;;12.80;99.90;;;;;;5094472;28;20032;-69
2021/10/19 03:59:50;;;;;;;26.92;17.83;;;12.80;99.90;;;;;;5095648;28;20043;-69
2021/10/19 04:02:16;;;;;;;23.75;17.15;;;12.80;99.90;;;;;;5094742;28;20040;-69
2021/10/19 04:04:41;;;;;;;23.30;17.35;;;12.70;99.90;;;;;;5096125;28;20066;-69
2021/10/19 04:07:07;;;;;;;25.85;18.02;;;12.80;99.90;;;;;;5095645;28;20456;-69
2021/10/19 04:09:33;;;;;;;27.60;18.60;;;12.80;99.90;;;;;;5095230;28;20035;-69
2021/10/19 04:11:59;;;;;;;24.58;17.17;;;12.80;99.90;;;;;;5095539;28;20115;-69
2021/10/19 04:14:25;;;;;;;26.30;17.77;;;12.80;99.90;;;;;;5095652;28;20067;-69
2021/10/19 04:16:50;;;;;;;25.00;17.20;;;12.90;99.90;;;;;;5095189;28;20544;-69
2021/10/19 04:19:18;;;;;;;25.75;17.90;;;12.90;99.90;;;;;;5093789;28;20040;-69
2021/10/19 04:21:47;;;;;;;22.60;16.65;;;12.90;99.90;;;;;;5095177;28;20032;-69
2021/10/19 04:24:16;;;;;;;29.83;17.08;;;12.90;99.90;;;;;;5095523;28;20169;-69
2021/10/19 04:26:43;;;;;;;22.45;17.08;;;12.90;99.90;;;;;;5093908;28;20416;-69
2021/10/19 04:29:10;;;;;;;25.17;18.40;;;12.90;99.90;;;;;;5094882;28;20024;-69
2021/10/19 04:31:37;;;;;;;24.15;17.55;;;12.90;99.90;;;;;;5094072;28;20121;-69
2021/10/19 04:34:04;;;;;;;24.10;18.63;;;12.90;99.90;;;;;;5094453;28;20040;-69
2021/10/19 04:36:29;;;;;;;25.55;18.05;;;13.00;99.90;;;;;;5094582;28;20062;-69
2021/10/19 04:38:55;;;;;;;22.35;17.55;;;13.00;99.90;;;;;;5094622;28;20488;-69
2021/10/19 04:41:21;;;;;;;24.25;17.90;;;13.00;99.90;;;;;;5095078;28;20353;-69
2021/10/19 04:43:46;;;;;;;26.15;17.75;;;13.00;99.90;;;;;;5095203;28;20423;-69
2021/10/19 04:46:12;;;;;;;26.73;18.08;;;13.00;99.90;;;;;;5095064;28;20353;-69
2021/10/19 04:48:38;;;;;;;27.90;18.40;;;13.00;99.90;;;;;;5094527;28;20036;-69
2021/10/19 04:51:04;;;;;;;26.67;19.38;;;13.00;99.90;;;;;;5094769;28;20032;-69
2021/10/19 04:53:31;;;;;;;21.90;16.92;;;13.00;99.90;;;;;;5095063;28;20123;-69
2021/10/19 04:55:57;;;;;;;26.35;17.40;;;13.00;99.90;;;;;;5094814;28;20051;-69
2021/10/19 04:58:22;;;;;;;22.58;17.58;;;13.00;99.90;;;;;;5093286;28;20048;-69
2021/10/19 05:00:48;;;;;;;25.50;17.52;;;13.00;99.90;;;;;;5094431;28;20043;-69
2021/10/19 05:03:16;;;;;;;22.83;17.98;;;13.00;99.90;;;;;;5095225;28;20361;-69
2021/10/19 05:05:42;;;;;;;23.65;17.50;;;13.00;99.90;;;;;;5093685;28;20472;-69
2021/10/19 05:08:07;;;;;;;24.90;17.48;;;13.10;99.90;;;;;;5094417;28;20115;-69
2021/10/19 05:10:33;;;;;;;27.08;18.13;;;13.00;99.90;;;;;;5092804;28;20036;-69
2021/10/19 05:12:58;;;;;;;26.63;18.85;;;13.10;99.90;;;;;;5094532;28;20166;-69
2021/10/19 05:15:25;;;;;;;23.83;17.63;;;13.10;99.90;;;;;;5094357;28;20063;-69
2021/10/19 05:17:51;;;;;;;26.15;18.48;;;13.10;99.90;;;;;;5094149;28;20032;-69
2021/10/19 05:20:16;;;;;;;26.45;18.67;;;13.10;99.90;;;;;;5093265;28;20047;-69
2021/10/19 05:22:42;;;;;;;29.90;19.55;;;13.00;99.90;;;;;;5092658;28;20404;-69
2021/10/19 05:25:10;;;;;;;31.40;20.95;;;13.10;99.90;;;;;;5092797;28;20036;-69
2021/10/19 05:27:35;;;;;;;28.80;19.77;;;13.00;99.90;;;;;;5093919;28;20553;-69
2021/10/19 05:30:02;;;;;;;29.35;20.75;;;13.00;99.90;;;;;;5094066;28;20039;-69
2021/10/19 05:32:28;;;;;;;33.05;21.75;;;13.00;99.90;;;;;;5092823;28;20066;-69
2021/10/19 05:34:53;;;;;;;32.58;22.85;;;13.00;99.90;;;;;;5092641;28;20484;-69
2021/10/19 05:37:19;;;;;;;33.78;21.80;;;13.00;99.90;;;;;;5094120;28;20105;-69
2021/10/19 05:39:44;;;;;;;34.05;21.25;;;13.00;99.90;;;;;;5093875;28;20060;-69
2021/10/19 05:42:11;;;;;;;31.15;22.23;;;13.00;99.90;;;;;;5094146;28;20036;-69
2021/10/19 05:44:36;;;;;;;34.08;22.17;;;13.00;99.90;;;;;;5092619;28;20048;-69
2021/10/19 05:47:02;;;;;;;32.15;22.33;;;12.90;99.90;;;;;;5093774;28;20077;-69
2021/10/19 05:49:27;;;;;;;29.77;20.17;;;12.90;99.90;;;;;;5092930;28;20039;-69
2021/10/19 05:51:55;;;;;;;35.08;21.45;;;13.00;99.90;;;;;;5093479;28;20028;-69
2021/10/19 05:54:21;;;;;;;36.33;24.10;;;13.00;99.90;;;;;;5093658;28;20047;-69
2021/10/19 05:56:47;;;;;;;31.88;22.25;;;13.00;99.90;;;;;;5093758;28;20032;-69
2021/10/19 05:59:12;;;;;;;32.28;21.88;;;13.00;99.90;;;;;;5093634;28;20101;-69
2021/10/19 06:01:38;;;;;;;37.95;22.52;;;12.90;99.90;;;;;;5092690;28;20040;-69
2021/10/19 06:04:04;;;;;;;34.40;22.02;;;12.90;99.90;;;;;;5093776;28;20040;-69
2021/10/19 06:06:29;;;;;;;34.53;21.65;;;13.00;99.90;;;;;;5093594;28;20036;-69
2021/10/19 06:08:56;;;;;;;33.80;20.92;;;12.90;99.90;;;;;;5093050;28;20090;-69
2021/10/19 06:11:21;;;;;;;34.10;22.67;;;12.90;99.90;;;;;;5093952;28;20539;-69
2021/10/19 06:13:47;;;;;;;30.17;21.23;;;13.00;99.90;;;;;;5093879;28;20067;-69
2021/10/19 06:16:13;;;;;;;33.72;21.58;;;13.00;99.90;;;;;;5092202;28;20458;-69
2021/10/19 06:18:38;;;;;;;32.05;21.75;;;13.00;99.90;;;;;;5093223;28;20036;-69
2021/10/19 06:21:04;;;;;;;33.42;23.08;;;13.00;99.90;;;;;;5093389;28;20115;-69
2021/10/19 06:23:30;;;;;;;31.80;22.08;;;13.00;99.90;;;;;;5093292;28;20044;-69
2021/10/19 06:25:56;;;;;;;34.35;21.83;;;13.10;99.90;;;;;;5093673;28;20044;-69
2021/10/19 06:28:24;;;;;;;29.75;23.02;;;13.00;99.90;;;;;;5093395;28;20480;-70
2021/10/19 06:30:49;;;;;;;30.02;22.15;;;13.10;99.90;;;;;;5092829;28;20595;-69
2021/10/19 06:33:15;;;;;;;32.83;22.05;;;13.10;99.90;;;;;;5093556;28;20119;-69
2021/10/19 06:35:41;;;;;;;35.38;21.17;;;13.10;99.90;;;;;;5092487;28;20469;-69
2021/10/19 06:38:07;;;;;;;36.22;23.27;;;13.10;99.90;;;;;;5093131;28;20113;-69
2021/10/19 06:40:33;;;;;;;31.90;22.52;;;13.10;99.90;;;;;;5093226;28;20047;-69
2021/10/19 06:42:58;;;;;;;30.00;20.65;;;13.10;99.90;;;;;;5093077;28;20048;-69
2021/10/19 06:45:25;;;;;;;33.63;23.63;;;13.20;99.90;;;;;;5093163;28;20120;-68
2021/10/19 06:47:50;;;;;;;35.40;23.63;;;13.10;99.90;;;;;;5093587;28;20078;-68
2021/10/19 06:50:16;;;;;;;33.28;23.77;;;13.20;99.90;;;;;;5092791;28;20478;-69
2021/10/19 06:52:41;;;;;;;33.33;23.42;;;13.20;99.90;;;;;;5093177;28;20036;-69
2021/10/19 06:55:08;;;;;;;35.40;23.95;;;13.20;99.90;;;;;;5093241;28;20040;-69
2021/10/19 06:57:41;;;;;;;32.00;22.73;;;13.20;99.90;;;;;;5091979;28;20040;-69
2021/10/19 07:00:12;;;;;;;33.80;23.33;;;13.20;99.90;;;;;;5093931;28;20048;-69
2021/10/19 07:02:37;;;;;;;38.00;25.15;;;13.20;99.90;;;;;;5096846;28;20088;-69
2021/10/19 07:05:04;;;;;;;37.97;24.83;;;13.20;99.90;;;;;;5097062;28;20044;-69
2021/10/19 07:07:33;;;;;;;35.08;23.92;;;13.20;99.90;;;;;;5096983;28;20123;-69
2021/10/19 07:10:00;;;;;;;36.28;24.50;;;13.20;99.90;;;;;;5096686;28;20036;-69
2021/10/19 07:12:25;;;;;;;35.53;23.90;;;13.20;99.90;;;;;;5096752;28;20058;-68
2021/10/19 07:14:51;;;;;;;36.00;24.15;;;13.20;99.90;;;;;;5096874;28;20540;-68
2021/10/19 07:17:16;;;;;;;40.83;23.92;;;13.20;99.90;;;;;;5096372;28;20500;-69
2021/10/19 07:19:42;;;;;;;37.28;24.13;;;13.30;99.90;;;;;;5094805;28;20396;-69
2021/10/19 07:22:08;;;;;;;37.58;25.02;;;13.30;99.90;;;;;;5096526;28;20048;-68
2021/10/19 07:24:34;;;;;;;36.83;24.70;;;13.30;99.90;;;;;;5095201;28;20032;-68
2021/10/19 07:27:00;;;;;;;35.00;24.92;;;13.30;99.90;;;;;;5096530;28;20502;-68
2021/10/19 07:29:25;;;;;;;39.75;26.27;;;13.30;99.90;;;;;;5095826;28;20503;-69
2021/10/19 07:31:51;;;;;;;31.75;23.52;;;13.40;99.90;;;;;;5096697;28;20079;-69
2021/10/19 07:34:17;;;;;;;34.67;23.65;;;13.40;99.90;;;;;;5096250;28;20032;-68
2021/10/19 07:36:43;;;;;;;41.53;25.92;;;13.40;99.90;;;;;;5096216;28;20154;-68
2021/10/19 07:39:09;;;;;;;37.83;24.52;;;13.40;99.90;;;;;;5096105;28;20533;-69
2021/10/19 07:41:36;;;;;;;38.80;25.40;;;13.40;99.90;;;;;;5096541;28;20406;-69
2021/10/19 07:44:03;;;;;;;41.60;27.13;;;13.50;99.90;;;;;;5096390;28;20515;-69
2021/10/19 07:46:29;;;;;;;34.33;23.92;;;13.50;99.90;;;;;;5096118;28;20059;-69
2021/10/19 07:48:54;;;;;;;33.65;23.45;;;13.50;99.90;;;;;;5095880;28;20488;-69
2021/10/19 07:51:20;;;;;;;39.58;24.83;;;13.50;99.90;;;;;;5096056;28;20357;-69
2021/10/19 07:53:45;;;;;;;32.70;23.90;;;13.60;99.90;;;;;;5095907;28;20102;-69
2021/10/19 07:56:11;;;;;;;32.03;23.67;;;13.60;99.90;;;;;;5095968;28;20036;-69
2021/10/19 07:58:37;;;;;;;30.52;21.55;;;13.60;99.90;;;;;;5095480;28;20400;-69
2021/10/19 08:01:02;;;;;;;35.47;25.02;;;13.60;99.90;;;;;;5095595;28;20048;-68
2021/10/19 08:03:31;;;;;;;32.97;23.30;;;13.60;99.90;;;;;;5095755;28;20035;-68
2021/10/19 08:05:56;;;;;;;32.75;23.40;;;13.70;99.90;;;;;;5095602;28;20040;-69
2021/10/19 08:08:22;;;;;;;35.47;24.58;;;13.70;99.90;;;;;;5095527;28;20084;-69
2021/10/19 08:10:48;;;;;;;31.02;22.27;;;13.80;99.90;;;;;;5076802;28;20040;-69
2021/10/19 08:13:15;;;;;;;31.75;22.63;;;13.80;99.90;;;;;;5094766;28;20043;-69
2021/10/19 08:15:41;;;;;;;38.15;24.25;;;13.80;99.90;;;;;;5095713;28;20036;-69
2021/10/19 08:18:08;;;;;;;35.55;23.92;;;13.80;99.90;;;;;;5095388;28;20036;-69
2021/10/19 08:20:35;;;;;;;36.00;23.45;;;13.90;99.90;;;;;;5093922;28;20047;-68
2021/10/19 08:23:01;;;;;;;37.75;25.52;;;13.90;99.90;;;;;;5094168;28;20051;-68
2021/10/19 08:25:27;;;;;;;31.80;22.98;;;13.90;99.90;;;;;;5095161;28;20123;-69
2021/10/19 08:27:53;;;;;;;29.67;21.85;;;14.00;99.90;;;;;;5094009;28;20123;-69
2021/10/19 08:30:20;;;;;;;29.70;21.58;;;14.00;99.90;;;;;;5093530;28;20116;-68
2021/10/19 08:32:47;;;;;;;32.00;21.67;;;14.00;99.90;;;;;;5095177;28;20043;-69
2021/10/19 08:35:14;;;;;;;32.78;23.35;;;14.00;99.90;;;;;;5093695;28;20039;-69
2021/10/19 08:37:41;;;;;;;31.95;22.00;;;14.00;99.90;;;;;;5093755;28;20048;-68
2021/10/19 08:40:08;;;;;;;36.17;24.48;;;14.00;99.90;;;;;;5094616;28;20044;-68
2021/10/19 08:42:41;;;;;;;32.33;22.17;;;14.00;99.90;;;;;;5093472;28;20044;-68
2021/10/19 08:45:08;;;;;;;31.70;21.98;;;14.00;99.90;;;;;;5094762;28;20028;-68
2021/10/19 08:47:34;;;;;;;31.40;22.60;;;14.00;99.90;;;;;;5095149;28;20047;-68
2021/10/19 08:49:59;;;;;;;33.20;22.23;;;14.10;99.90;;;;;;5094711;28;20045;-68
2021/10/19 08:52:25;;;;;;;30.30;23.45;;;14.10;99.90;;;;;;5094497;28;20392;-69
2021/10/19 08:54:50;;;;;;;31.33;21.48;;;14.10;99.90;;;;;;5094073;28;20044;-68
2021/10/19 08:57:18;;;;;;;34.72;23.75;;;14.10;99.90;;;;;;5094650;28;20403;-68
2021/10/19 08:59:45;;;;;;;30.20;22.20;;;14.10;99.90;;;;;;5093358;28;20044;-68
2021/10/19 09:02:12;;;;;;;32.17;23.73;;;14.20;99.90;;;;;;5094551;28;20083;-68
2021/10/19 09:04:38;;;;;;;31.35;23.20;;;14.20;99.90;;;;;;5094517;28;20051;-68
2021/10/19 09:07:04;;;;;;;32.10;23.08;;;14.20;99.90;;;;;;5094416;28;20039;-68
2021/10/19 09:09:30;;;;;;;32.58;23.88;;;14.30;99.90;;;;;;5094039;28;20040;-67
2021/10/19 09:11:56;;;;;;;35.15;24.50;;;14.30;99.90;;;;;;5092972;28;20035;-68
2021/10/19 09:14:37;;;;;;;35.15;23.73;;;14.30;99.90;;;;;;5094585;28;20035;-68
2021/10/19 09:17:04;;;;;;;37.80;24.65;;;14.30;99.90;;;;;;5094601;28;20094;-68
2021/10/19 09:19:30;;;;;;;28.88;21.58;;;14.30;99.90;;;;;;5093763;28;20488;-68
2021/10/19 09:22:05;;;;;;;35.25;23.88;;;14.30;99.90;;;;;;5092557;28;20097;-68
2021/10/19 09:24:32;;;;;;;30.02;21.83;;;14.30;99.90;;;;;;5093913;28;20035;-68
2021/10/19 09:27:01;;;;;;;28.33;22.00;;;14.30;99.90;;;;;;5094152;28;20043;-68
2021/10/19 09:29:30;;;;;;;30.67;21.70;;;14.30;99.90;;;;;;5075441;28;20040;-68
2021/10/19 09:31:58;;;;;;;29.48;20.23;;;14.30;99.90;;;;;;5092821;28;20430;-69
2021/10/19 09:34:27;;;;;;;29.65;21.75;;;14.30;99.90;;;;;;5094182;28;20040;-67
2021/10/19 09:36:53;;;;;;;27.20;20.33;;;14.30;99.90;;;;;;5092512;28;20116;-68
2021/10/19 09:39:33;;;;;;;28.02;20.17;;;14.30;99.90;;;;;;5093547;28;20110;-69
2021/10/19 09:42:00;;;;;;;33.65;24.70;;;14.40;99.90;;;;;;5092573;28;20044;-68
2021/10/19 09:44:25;;;;;;;29.10;21.55;;;14.40;99.90;;;;;;5092736;28;20089;-69
2021/10/19 09:46:51;;;;;;;29.60;21.67;;;14.40;99.90;;;;;;5093745;28;20036;-69
2021/10/19 09:49:17;;;;;;;29.40;20.25;;;14.40;99.90;;;;;;5092214;28;20043;-69
2021/10/19 09:51:44;;;;;;;30.13;21.77;;;14.40;99.90;;;;;;5092597;28;20089;-69
2021/10/19 09:54:11;;;;;;;37.45;23.65;;;14.50;99.90;;;;;;5092496;28;20119;-69
2021/10/19 09:56:39;;;;;;;31.58;21.73;;;14.50;99.90;;;;;;5093904;28;20373;-70
2021/10/19 09:59:06;;;;;;;27.38;20.42;;;14.50;99.90;;;;;;5093100;28;20073;-69
2021/10/19 10:01:33;;;;;;;30.73;22.15;;;14.50;99.90;;;;;;5094057;28;20036;-69
2021/10/19 10:03:59;;;;;;;32.05;22.55;;;14.60;99.90;;;;;;5092020;28;20036;-69
2021/10/19 10:06:26;;;;;;;28.23;20.00;;;14.60;99.90;;;;;;5094040;28;20028;-69
2021/10/19 10:08:52;;;;;;;30.02;20.67;;;14.60;99.90;;;;;;5091889;28;20040;-68
2021/10/19 10:11:20;;;;;;;29.38;20.17;;;14.70;99.90;;;;;;5093701;28;20506;-67
2021/10/19 10:13:57;;;;;;;29.13;19.10;;;14.70;99.90;;;;;;5093388;28;20058;-69
2021/10/19 10:16:23;;;;;;;33.13;20.58;;;14.70;99.90;;;;;;5092089;28;20040;-68
2021/10/19 10:18:49;;;;;;;25.30;17.70;;;14.80;99.90;;;;;;5093442;28;20097;-70
2021/10/19 10:21:20;;;;;;;25.92;17.98;;;14.80;99.90;;;;;;5093516;28;20044;-69
2021/10/19 10:23:47;;;;;;;27.48;18.63;;;14.80;99.90;;;;;;5093729;28;20132;-69
2021/10/19 10:26:27;;;;;;;27.52;20.17;;;14.90;99.90;;;;;;5092300;28;20085;-69
2021/10/19 10:28:53;;;;;;;26.90;18.98;;;14.90;99.90;;;;;;5093008;28;20115;-68
2021/10/19 10:31:23;;;;;;;22.65;17.33;;;14.90;99.90;;;;;;5091965;28;20124;-70
2021/10/19 10:34:01;;;;;;;24.33;17.55;;;15.00;99.90;;;;;;5093941;28;20115;-69
2021/10/19 10:36:36;;;;;;;24.23;17.27;;;15.10;99.90;;;;;;5097571;28;20036;-68
2021/10/19 10:39:04;;;;;;;25.88;16.33;;;15.10;99.90;;;;;;5097313;28;20043;-69
2021/10/19 10:41:44;;;;;;;26.23;16.92;;;15.10;99.90;;;;;;5095813;28;20048;-70
2021/10/19 10:44:12;;;;;;;20.98;16.48;;;15.10;99.90;;;;;;5097108;28;20051;-69
2021/10/19 10:46:40;;;;;;;21.33;16.27;;;15.10;99.90;;;;;;5097360;28;20036;-70
2021/10/19 10:49:11;;;;;;;20.02;16.33;;;15.20;99.90;;;;;;5096876;28;20047;-70
2021/10/19 10:51:38;;;;;;;22.40;16.30;;;15.20;99.90;;;;;;5097378;28;20150;-70
2021/10/19 10:54:05;;;;;;;20.25;15.45;;;15.20;99.90;;;;;;5097122;28;20260;-69
2021/10/19 10:56:41;;;;;;;20.98;16.10;;;15.30;99.90;;;;;;5097077;28;20119;-70
2021/10/19 10:59:07;;;;;;;26.63;16.60;;;15.30;99.90;;;;;;5096641;28;20107;-69
2021/10/19 11:01:32;;;;;;;21.98;15.88;;;15.40;99.90;;;;;;5096088;28;20125;-69
2021/10/19 11:04:07;;;;;;;22.08;14.70;;;15.40;99.90;;;;;;5097230;28;20173;-70
2021/10/19 11:06:34;;;;;;;21.27;14.68;;;15.40;99.90;;;;;;5096699;28;20116;-69
2021/10/19 11:09:05;;;;;;;21.00;14.93;;;15.40;99.90;;;;;;5096575;28;20048;-70
2021/10/19 11:11:32;;;;;;;20.25;13.93;;;15.50;99.90;;;;;;5096997;28;20040;-69
2021/10/19 11:14:00;;;;;;;18.05;12.77;;;15.50;99.90;;;;;;5097121;28;20170;-69
2021/10/19 11:16:48;;;;;;;14.50;11.57;;;15.60;99.90;;;;;;5095571;28;20071;-69
2021/10/19 11:19:28;;;;;;;15.23;11.90;;;15.60;99.90;;;;;;5095263;28;20044;-69
2021/10/19 11:22:03;;;;;;;15.63;11.13;;;15.60;99.90;;;;;;5096461;28;20113;-70
2021/10/19 11:24:31;;;;;;;13.18;10.48;;;15.60;99.90;;;;;;5096554;28;20111;-69
2021/10/19 11:27:00;;;;;;;12.85;10.55;;;15.70;99.90;;;;;;5095394;28;20055;-69
2021/10/19 11:29:26;;;;;;;12.05;9.55;;;15.70;99.90;;;;;;5096005;28;20070;-70
2021/10/19 11:31:52;;;;;;;13.27;10.30;;;15.70;99.90;;;;;;5096429;28;20068;-69
2021/10/19 11:34:18;;;;;;;12.57;10.02;;;15.80;99.90;;;;;;5095070;28;20526;-69
2021/10/19 11:36:47;;;;;;;12.60;9.68;;;15.80;99.90;;;;;;5095388;28;20071;-69
2021/10/19 11:39:15;;;;;;;11.45;9.43;;;15.80;99.90;;;;;;5095967;28;20040;-70
2021/10/19 11:41:53;;;;;;;11.80;9.77;;;15.80;99.90;;;;;;5096164;28;20043;-69
2021/10/19 11:44:20;;;;;;;11.73;9.07;;;15.90;99.90;;;;;;5096436;28;20050;-69
2021/10/19 11:46:45;;;;;;;13.15;10.13;;;15.90;99.90;;;;;;5094246;28;20124;-69
2021/10/19 11:49:16;;;;;;;12.05;10.07;;;15.90;99.90;;;;;;5095913;28;20115;-69
2021/10/19 11:51:44;;;;;;;12.50;10.00;;;16.00;99.90;;;;;;5095010;28;20048;-69
2021/10/19 11:54:10;;;;;;;16.67;11.32;;;16.00;99.90;;;;;;5095891;28;20176;-70
2021/10/19 11:56:35;;;;;;;12.27;9.73;;;16.00;99.90;;;;;;5094699;28;20048;-69
2021/10/19 11:59:06;;;;;;;14.93;10.35;;;16.10;99.90;;;;;;5095514;28;20096;-69
2021/10/19 12:01:40;;;;;;;11.70;10.05;;;16.10;99.90;;;;;;5095888;28;20115;-70
2021/10/19 12:04:08;;;;;;;14.55;10.25;;;16.10;99.90;;;;;;5094561;28;20040;-70
2021/10/19 12:06:35;;;;;;;11.40;9.38;;;16.10;99.90;;;;;;5094745;28;20089;-70
2021/10/19 12:09:17;;;;;;;15.00;11.45;;;16.20;99.90;;;;;;5095541;28;20038;-70
2021/10/19 12:11:52;;;;;;;14.60;11.77;;;16.20;99.90;;;;;;5094441;28;20376;-70
2021/10/19 12:14:27;;;;;;;13.23;10.00;;;16.20;99.90;;;;;;5095892;28;20066;-70
2021/10/19 12:16:54;;;;;;;15.80;12.00;;;16.30;99.90;;;;;;5094824;28;20083;-70
2021/10/19 12:19:20;;;;;;;15.20;10.57;;;16.20;99.90;;;;;;5094029;28;20500;-70
2021/10/19 12:21:57;;;;;;;13.30;11.00;;;16.30;99.90;;;;;;5095652;28;20032;-70
2021/10/19 12:24:24;;;;;;;12.57;10.48;;;16.30;99.90;;;;;;5095489;28;20049;-70
2021/10/19 12:27:04;;;;;;;12.90;10.57;;;16.30;99.90;;;;;;5095526;28;20035;-70